createdAt,value
2022-12-25T00:03:45.958Z,1.58
2022-12-25T00:08:49.497Z,1.34
2022-12-25T00:13:52.814Z,1.21
2022-12-25T00:18:59.236Z,1.22
2022-12-25T00:24:03.655Z,1.20
2022-12-25T00:29:07.034Z,1.15
2022-12-25T00:34:12.171Z,1.13
2022-12-25T00:39:15.181Z,1.26
2022-12-25T00:44:19.038Z,1.07
2022-12-25T00:49:25.063Z,1.17
2022-12-25T00:54:28.826Z,1.12
2022-12-25T00:59:33.907Z,1.20
2022-12-25T01:04:38.735Z,1.14
2022-12-25T01:09:59.245Z,1.26
2022-12-25T01:15:02.677Z,1.11
2022-12-25T01:20:09.590Z,1.04
2022-12-25T01:25:14.307Z,0.92
2022-12-25T01:30:17.734Z,0.91
2022-12-25T01:35:22.593Z,0.91
2022-12-25T01:40:26.310Z,0.76
2022-12-25T01:45:39.463Z,0.82
2022-12-25T01:50:49.031Z,0.70
2022-12-25T01:55:58.057Z,0.72
2022-12-25T02:01:01.590Z,0.76
2022-12-25T02:06:08.144Z,0.79
2022-12-25T02:11:32.222Z,0.71
2022-12-25T02:16:57.442Z,0.84
2022-12-25T02:22:17.396Z,0.80
2022-12-25T02:27:33.232Z,0.67
2022-12-25T02:32:46.331Z,0.66
2022-12-25T02:37:54.892Z,0.49
2022-12-25T02:43:19.939Z,0.31
2022-12-25T02:48:44.900Z,0.29
2022-12-25T02:54:07.560Z,0.13
2022-12-25T02:59:29.214Z,-0.12
2022-12-25T03:04:52.425Z,0.07
2022-12-25T03:10:17.969Z,0.11
2022-12-25T03:15:39.567Z,0.18
2022-12-25T03:21:01.953Z,0.14
2022-12-25T03:26:23.549Z,0.15
2022-12-25T03:31:36.901Z,0.19
2022-12-25T03:36:53.138Z,0.16
2022-12-25T03:42:19.320Z,0.13
2022-12-25T03:47:45.942Z,0.15
2022-12-25T03:53:10.231Z,0.10
2022-12-25T03:58:36.820Z,0.09
2022-12-25T04:03:57.495Z,-0.07
2022-12-25T04:09:19.815Z,0.01
2022-12-25T04:14:40.284Z,0.08
2022-12-25T04:20:00.948Z,0.03
2022-12-25T04:25:35.029Z,0.19
2022-12-25T04:30:55.757Z,0.21
2022-12-25T04:36:11.048Z,0.14
2022-12-25T04:41:16.145Z,0.10
2022-12-25T04:46:19.553Z,0.14
2022-12-25T04:51:24.721Z,0.21
2022-12-25T04:56:29.487Z,0.20
2022-12-25T05:01:32.761Z,0.25
2022-12-25T05:06:36.315Z,0.02
2022-12-25T05:11:41.245Z,-0.01
2022-12-25T05:16:44.704Z,-0.12
2022-12-25T05:21:48.126Z,-0.19
2022-12-25T05:26:52.882Z,-0.17
2022-12-25T05:31:56.204Z,-0.08
2022-12-25T05:36:59.907Z,-0.10
2022-12-25T05:42:04.808Z,-0.12
2022-12-25T05:47:08.084Z,0.05
2022-12-25T05:52:11.661Z,-0.13
2022-12-25T05:57:16.591Z,-0.15
2022-12-25T06:02:20.048Z,-0.20
2022-12-25T06:07:23.667Z,-0.17
2022-12-25T06:12:28.491Z,-0.12
2022-12-25T06:17:31.652Z,-0.17
2022-12-25T06:22:35.928Z,-0.28
2022-12-25T06:27:40.925Z,-0.29
2022-12-25T06:32:44.372Z,-0.28
2022-12-25T06:37:47.911Z,-0.33
2022-12-25T06:42:53.375Z,-0.42
2022-12-25T06:47:56.897Z,-0.30
2022-12-25T06:53:00.237Z,-0.15
2022-12-25T06:58:05.369Z,-0.08
2022-12-25T07:03:09.047Z,-0.14
2022-12-25T07:08:12.538Z,-0.02
2022-12-25T07:13:17.308Z,0.09
2022-12-25T07:18:20.872Z,0.04
2022-12-25T07:23:24.752Z,0.16
2022-12-25T07:28:30.244Z,0.21
2022-12-25T07:33:34.021Z,0.20
2022-12-25T07:38:37.600Z,0.23
2022-12-25T07:43:43.239Z,0.29
2022-12-25T07:48:46.789Z,0.21
2022-12-25T07:53:50.219Z,0.29
2022-12-25T07:58:54.992Z,0.28
2022-12-25T08:03:58.943Z,0.38
2022-12-25T08:09:06.036Z,0.25
2022-12-25T08:14:10.853Z,0.31
2022-12-25T08:19:14.644Z,0.43
2022-12-25T08:24:18.000Z,0.30
2022-12-25T08:29:22.947Z,0.34
2022-12-25T08:34:26.269Z,0.25
2022-12-25T08:39:29.780Z,0.33
2022-12-25T08:44:34.637Z,0.21
2022-12-25T08:49:37.725Z,0.03
2022-12-25T08:54:41.316Z,0.02
2022-12-25T08:59:46.118Z,0.09
2022-12-25T09:04:49.419Z,0.20
2022-12-25T09:09:52.801Z,0.20
2022-12-25T09:14:57.741Z,0.20
2022-12-25T09:20:00.951Z,0.38
2022-12-25T09:25:04.419Z,0.05
2022-12-25T09:30:11.172Z,0.21
2022-12-25T09:35:17.621Z,0.16
2022-12-25T09:40:23.260Z,0.16
2022-12-25T09:45:33.017Z,0.09
2022-12-25T09:50:45.048Z,0.00
2022-12-25T09:55:54.860Z,0.00
2022-12-25T10:01:18.356Z,0.16
2022-12-25T10:06:25.054Z,0.18
2022-12-25T10:11:42.985Z,0.28
2022-12-25T10:16:57.564Z,0.21
2022-12-25T10:22:05.274Z,0.35
2022-12-25T10:27:17.156Z,0.55
2022-12-25T10:32:22.051Z,0.59
2022-12-25T10:37:26.348Z,0.75
2022-12-25T10:42:38.721Z,0.62
2022-12-25T10:47:43.563Z,0.77
2022-12-25T10:52:55.423Z,0.85
2022-12-25T10:58:00.304Z,0.76
2022-12-25T11:03:05.343Z,0.54
2022-12-25T11:08:21.910Z,0.61
2022-12-25T11:13:27.440Z,0.65
2022-12-25T11:18:36.130Z,0.64
2022-12-25T11:23:46.410Z,0.60
2022-12-25T11:28:52.711Z,0.61
2022-12-25T11:34:00.751Z,0.57
2022-12-25T11:39:15.635Z,0.57
2022-12-25T11:44:29.284Z,0.52
2022-12-25T11:49:47.116Z,0.55
2022-12-25T11:54:56.680Z,0.60
2022-12-25T12:00:06.910Z,0.55
2022-12-25T12:05:18.188Z,0.54
2022-12-25T12:10:29.795Z,0.39
2022-12-25T12:15:42.756Z,0.49
2022-12-25T12:20:59.374Z,0.58
2022-12-25T12:26:03.088Z,0.50
2022-12-25T12:31:09.459Z,0.50
2022-12-25T12:36:16.238Z,0.45
2022-12-25T12:41:19.665Z,0.13
2022-12-25T12:46:30.525Z,0.20
2022-12-25T12:51:37.616Z,0.24
2022-12-25T12:56:41.218Z,0.14
2022-12-25T13:01:53.602Z,0.25
2022-12-25T13:07:10.402Z,0.17
2022-12-25T13:12:15.310Z,-0.04
2022-12-25T13:17:19.977Z,-0.08
2022-12-25T13:22:26.483Z,-0.28
2022-12-25T13:27:33.210Z,-0.35
2022-12-25T13:32:36.727Z,-0.41
2022-12-25T13:37:41.502Z,-0.33
2022-12-25T13:42:47.843Z,-0.06
2022-12-25T13:47:55.624Z,-0.32
2022-12-25T13:53:13.492Z,-0.24
2022-12-25T13:58:25.227Z,-0.24
2022-12-25T14:03:33.610Z,-0.30
2022-12-25T14:08:38.644Z,-0.36
2022-12-25T14:13:44.970Z,-0.38
2022-12-25T14:18:53.036Z,-0.34
2022-12-25T14:23:58.177Z,-0.36
2022-12-25T14:29:16.511Z,-0.31
2022-12-25T14:34:24.305Z,-0.29
2022-12-25T14:39:33.676Z,-0.33
2022-12-25T14:44:39.089Z,-0.41
2022-12-25T14:49:42.744Z,-0.32
2022-12-25T14:54:50.022Z,-0.17
2022-12-25T14:59:58.960Z,-0.16
2022-12-25T15:05:02.440Z,-0.24
2022-12-25T15:10:58.886Z,-0.13
2022-12-25T15:15:38.544Z,-0.21
2022-12-25T15:20:42.109Z,-0.26
2022-12-25T15:25:47.651Z,-0.23
2022-12-25T15:30:51.117Z,-0.22
2022-12-25T15:35:54.494Z,-0.12
2022-12-25T15:40:59.414Z,-0.07
2022-12-25T15:46:02.878Z,-0.22
2022-12-25T15:51:06.569Z,-0.23
2022-12-25T15:56:12.846Z,-0.25
2022-12-25T16:01:17.168Z,-0.32
2022-12-25T16:06:20.927Z,-0.45
2022-12-25T16:11:25.650Z,-0.48
2022-12-25T16:16:29.037Z,-0.54
2022-12-25T16:21:39.487Z,-0.44
2022-12-25T16:26:45.074Z,-0.47
2022-12-25T16:31:48.411Z,-0.54
2022-12-25T16:36:51.928Z,-0.53
2022-12-25T16:41:56.877Z,-0.45
2022-12-25T16:47:00.517Z,-0.52
2022-12-25T16:52:04.191Z,-0.56
2022-12-25T16:57:09.009Z,-0.52
2022-12-25T17:02:16.388Z,-0.50
2022-12-25T17:07:19.993Z,-0.62
2022-12-25T17:12:24.903Z,-0.60
2022-12-25T17:17:28.442Z,-0.62
2022-12-25T17:22:32.060Z,-0.70
2022-12-25T17:27:37.363Z,-0.55
2022-12-25T17:32:41.440Z,-0.62
2022-12-25T17:37:44.976Z,-0.61
2022-12-25T17:42:53.053Z,-0.77
2022-12-25T17:47:57.802Z,-0.68
2022-12-25T17:53:02.685Z,-0.44
2022-12-25T17:58:07.609Z,-0.57
2022-12-25T18:03:12.043Z,-0.66
2022-12-25T18:08:16.226Z,-0.72
2022-12-25T18:13:21.054Z,-0.60
2022-12-25T18:18:24.107Z,-0.50
2022-12-25T18:23:27.734Z,-0.78
2022-12-25T18:28:32.885Z,-0.76
2022-12-25T18:33:36.226Z,-0.73
2022-12-25T18:38:39.786Z,-0.77
2022-12-25T18:43:53.051Z,-0.59
2022-12-25T18:48:59.045Z,-0.55
2022-12-25T18:54:02.859Z,-0.49
2022-12-25T18:59:07.643Z,-0.51
2022-12-25T19:04:12.902Z,-0.58
2022-12-25T19:09:16.468Z,-0.80
2022-12-25T19:14:23.112Z,-0.61
2022-12-25T19:19:26.801Z,-0.60
2022-12-25T19:24:30.125Z,-0.63
2022-12-25T19:29:35.230Z,-0.70
2022-12-25T19:34:38.719Z,-0.82
2022-12-25T19:39:47.017Z,-0.64
2022-12-25T19:44:51.874Z,-1.08
2022-12-25T19:49:59.590Z,-0.70
2022-12-25T19:55:08.410Z,-0.62
2022-12-25T20:00:14.000Z,-0.58
2022-12-25T20:05:17.577Z,-0.57
2022-12-25T20:10:21.061Z,-0.65
2022-12-25T20:15:28.736Z,-0.59
2022-12-25T20:20:32.225Z,-0.76
2022-12-25T20:25:35.682Z,-0.86
2022-12-25T20:30:41.751Z,-0.95
2022-12-25T20:35:46.916Z,-1.03
2022-12-25T20:41:25.086Z,-1.12
2022-12-25T20:46:15.501Z,-1.12
2022-12-25T20:51:20.770Z,-1.15
2022-12-25T20:56:25.922Z,-1.13
2022-12-25T21:01:32.521Z,-1.10
2022-12-25T21:06:36.252Z,-1.24
2022-12-25T21:11:39.793Z,-1.31
2022-12-25T21:16:45.040Z,-1.18
2022-12-25T21:21:51.263Z,-1.19
2022-12-25T21:26:54.697Z,-1.27
2022-12-25T21:32:16.660Z,-1.27
2022-12-25T21:37:20.175Z,-1.27
2022-12-25T21:42:24.814Z,-1.26
2022-12-25T21:48:02.466Z,-1.28
2022-12-25T21:52:52.932Z,-1.31
2022-12-25T21:57:56.580Z,-1.20
2022-12-25T22:03:01.572Z,-1.47
2022-12-25T22:08:05.039Z,-1.27
2022-12-25T22:13:26.000Z,-1.21
2022-12-25T22:18:48.344Z,-1.13
2022-12-25T22:23:51.820Z,-1.41
2022-12-25T22:28:55.177Z,-1.34
2022-12-25T22:33:59.916Z,-1.38
2022-12-25T22:39:03.912Z,-1.37
2022-12-25T22:44:17.648Z,-1.34
2022-12-25T22:49:23.408Z,-1.23
2022-12-25T22:54:30.097Z,-1.25
2022-12-25T22:59:34.218Z,-1.26
2022-12-25T23:04:39.101Z,-1.27
2022-12-25T23:09:42.798Z,-1.30
2022-12-25T23:14:47.099Z,-1.23
2022-12-25T23:20:09.122Z,-1.24
2022-12-25T23:25:33.493Z,-1.24
2022-12-25T23:30:36.954Z,-1.33
2022-12-25T23:35:41.829Z,-1.32
2022-12-25T23:40:45.128Z,-1.41
2022-12-25T23:45:48.549Z,-1.34
2022-12-25T23:50:53.290Z,-1.19
2022-12-25T23:55:57.830Z,-1.10
